createdAt,value
2018-09-07T00:00:53.438Z,90.99
2018-09-07T00:02:03.282Z,90.8
2018-09-07T00:03:13.093Z,91.28
2018-09-07T00:04:22.410Z,90.94
2018-09-07T00:05:32.480Z,91.13
2018-09-07T00:06:42.549Z,91.42
2018-09-07T00:07:52.629Z,90.66
2018-09-07T00:09:02.446Z,91.33
2018-09-07T00:10:12.271Z,91.61
2018-09-07T00:11:22.370Z,91.61
2018-09-07T00:12:32.178Z,91.33
2018-09-07T00:13:41.991Z,91.04
2018-09-07T00:14:52.194Z,90.84
2018-09-07T00:16:02.011Z,90.94
2018-09-07T00:17:11.829Z,90.94
2018-09-07T00:18:21.986Z,90.56
2018-09-07T00:19:32.087Z,90.75
2018-09-07T00:20:41.941Z,90.75
2018-09-07T00:21:51.767Z,90.66
2018-09-07T00:23:01.584Z,90.66
2018-09-07T00:24:11.139Z,90.56
2018-09-07T00:25:21.217Z,90.66
2018-09-07T00:26:31.050Z,90.84
2018-09-07T00:27:41.128Z,90.75
2018-09-07T00:28:51.547Z,90.99
2018-09-07T00:30:01.639Z,91.09
2018-09-07T00:31:11.453Z,91.04
2018-09-07T00:32:21.577Z,90.9
2018-09-07T00:33:31.658Z,90.52
2018-09-07T00:34:41.235Z,90.8
2018-09-07T00:35:51.047Z,90.8
2018-09-07T00:37:01.135Z,90.66
2018-09-07T00:38:11.221Z,90.75
2018-09-07T00:39:21.285Z,90.75
2018-09-07T00:40:31.390Z,90.75
2018-09-07T00:41:41.199Z,90.7
2018-09-07T00:42:51.279Z,91.04
2018-09-07T00:44:01.163Z,90.61
2018-09-07T00:45:11.252Z,90.7
2018-09-07T00:46:21.331Z,90.7
2018-09-07T00:47:31.414Z,90.7
2018-09-07T00:48:41.224Z,90.8
2018-09-07T00:49:51.298Z,90.84
2018-09-07T00:51:01.121Z,90.7
2018-09-07T00:52:11.197Z,90.61
2018-09-07T00:53:21.260Z,90.52
2018-09-07T00:54:31.327Z,90.61
2018-09-07T00:55:41.146Z,90.8
2018-09-07T00:56:50.951Z,90.75
2018-09-07T00:58:01.051Z,90.75
2018-09-07T00:59:11.154Z,90.84
2018-09-07T01:00:21.917Z,90.94
2018-09-07T01:01:31.772Z,91.04
2018-09-07T01:02:41.837Z,90.94
2018-09-07T01:03:51.855Z,90.84
2018-09-07T01:05:01.954Z,91.04
2018-09-07T01:06:12.024Z,90.84
2018-09-07T01:07:21.841Z,90.84
2018-09-07T01:08:31.386Z,90.84
2018-09-07T01:09:41.200Z,90.66
2018-09-07T01:10:51.275Z,90.56
2018-09-07T01:12:01.367Z,90.75
2018-09-07T01:13:11.443Z,90.94
2018-09-07T01:14:21.544Z,91.04
2018-09-07T01:15:31.360Z,90.66
2018-09-07T01:16:41.489Z,90.84
2018-09-07T01:17:51.303Z,90.94
2018-09-07T01:19:01.419Z,90.75
2018-09-07T01:20:11.510Z,90.52
2018-09-07T01:21:21.597Z,90.84
2018-09-07T01:22:31.435Z,90.56
2018-09-07T01:23:41.235Z,90.9
2018-09-07T01:24:51.091Z,90.99
2018-09-07T01:26:01.183Z,90.9
2018-09-07T01:27:11.259Z,91.09
2018-09-07T01:28:21.344Z,91.19
2018-09-07T01:29:31.163Z,91.28
2018-09-07T01:30:41.221Z,90.8
2018-09-07T01:31:51.291Z,91.28
2018-09-07T01:33:01.389Z,91.57
2018-09-07T01:34:11.460Z,91.57
2018-09-07T01:35:21.005Z,91.47
2018-09-07T01:36:30.836Z,90.8
2018-09-07T01:37:40.904Z,91.42
2018-09-07T01:38:50.974Z,91.33
2018-09-07T01:40:01.046Z,91.09
2018-09-07T01:41:11.120Z,91.09
2018-09-07T01:42:20.941Z,91.05
2018-09-07T01:43:31.006Z,91.05
2018-09-07T01:44:41.072Z,91.33
2018-09-07T01:45:51.142Z,91.33
2018-09-07T01:47:01.246Z,90.95
2018-09-07T01:48:10.804Z,90.95
2018-09-07T01:49:20.875Z,91.05
2018-09-07T01:50:30.933Z,90.95
2018-09-07T01:51:41.029Z,90.75
2018-09-07T01:52:51.108Z,91.14
2018-09-07T01:54:01.201Z,90.85
2018-09-07T01:55:11.002Z,91.05
2018-09-07T01:56:20.839Z,90.95
2018-09-07T01:57:30.914Z,90.85
2018-09-07T01:58:41.003Z,90.95
2018-09-07T01:59:50.857Z,90.66
2018-09-07T02:01:00.947Z,90.66
2018-09-07T02:02:11.262Z,90.42
2018-09-07T02:03:21.064Z,90.42
2018-09-07T02:04:31.133Z,90.81
2018-09-07T02:05:41.258Z,90.9
2018-09-07T02:06:51.097Z,90.42
2018-09-07T02:08:01.177Z,90.42
2018-09-07T02:09:11.253Z,90.33
2018-09-07T02:10:21.336Z,90.81
2018-09-07T02:11:31.196Z,90.9
2018-09-07T02:12:41.013Z,90.71
2018-09-07T02:13:51.060Z,90.9
2018-09-07T02:15:01.146Z,90.9
2018-09-07T02:16:10.977Z,90.81
2018-09-07T02:17:21.062Z,90.61
2018-09-07T02:18:31.138Z,90.52
2018-09-07T02:19:41.217Z,90.52
2018-09-07T02:20:51.281Z,90.81
2018-09-07T02:22:01.079Z,90.52
2018-09-07T02:23:11.168Z,90.52
2018-09-07T02:24:20.984Z,90.9
2018-09-07T02:25:31.286Z,90.42
2018-09-07T02:26:41.371Z,90.42
2018-09-07T02:27:51.445Z,90.9
2018-09-07T02:29:01.590Z,90.52
2018-09-07T02:30:11.783Z,90.71
2018-09-07T02:31:22.150Z,90.9
2018-09-07T02:32:32.276Z,90.71
2018-09-07T02:33:42.337Z,90.52
2018-09-07T02:34:52.467Z,90.71
2018-09-07T02:36:02.557Z,90.9
2018-09-07T02:37:12.370Z,90.61
2018-09-07T02:38:22.243Z,90.81
2018-09-07T02:39:32.326Z,90.81
2018-09-07T02:40:42.435Z,90.95
2018-09-07T02:41:52.257Z,90.61
2018-09-07T02:43:02.359Z,90.71
2018-09-07T02:44:12.420Z,91
2018-09-07T02:45:22.499Z,90.61
2018-09-07T02:46:32.579Z,90.9
2018-09-07T02:47:42.377Z,90.71
2018-09-07T02:48:52.188Z,90.81
2018-09-07T02:50:02.280Z,90.9
2018-09-07T02:51:12.100Z,90.9
2018-09-07T02:52:22.169Z,90.57
2018-09-07T02:53:32.237Z,90.57
2018-09-07T02:54:42.121Z,90.67
2018-09-07T02:55:52.206Z,90.52
2018-09-07T02:57:02.269Z,90.67
2018-09-07T02:58:12.415Z,90.47
2018-09-07T02:59:22.502Z,90.67
2018-09-07T03:00:32.574Z,90.57
2018-09-07T03:01:42.403Z,91
2018-09-07T03:02:52.248Z,90.81
2018-09-07T03:34:52.696Z,84.22
2018-09-07T03:36:03.218Z,84.79
2018-09-07T03:37:13.014Z,85.36
2018-09-07T03:38:22.812Z,86.7
2018-09-07T03:39:32.901Z,87.18
2018-09-07T03:40:43.019Z,87.95
2018-09-07T03:41:52.572Z,88.33
2018-09-07T03:43:02.543Z,89.09
2018-09-07T03:44:12.625Z,89.52
2018-09-07T03:45:22.686Z,89.52
2018-09-07T03:46:32.796Z,89.72
2018-09-07T03:47:42.613Z,90.39
2018-09-07T03:48:52.444Z,90.09
2018-09-07T03:50:02.523Z,90.48
2018-09-07T03:51:12.596Z,90.43
2018-09-07T03:52:22.667Z,90.72
2018-09-07T03:53:32.487Z,90.72
2018-09-07T03:54:42.568Z,90.72
2018-09-07T03:55:52.702Z,90.86
2018-09-07T03:57:02.762Z,90.67
2018-09-07T03:58:12.577Z,90.95
2018-09-07T03:59:22.402Z,90.67
2018-09-07T04:00:32.208Z,90.47
2018-09-07T04:01:42.296Z,90.57
2018-09-07T04:02:52.117Z,90.76
2018-09-07T04:04:02.684Z,90.28
2018-09-07T04:05:12.771Z,90.86
2018-09-07T04:06:22.857Z,90.57
2018-09-07T04:07:32.933Z,90.38
2018-09-07T04:08:42.744Z,90.38
2018-09-07T04:09:52.858Z,90.47
2018-09-07T04:11:03.410Z,90.61
2018-09-07T04:12:13.775Z,90.76
2018-09-07T04:13:23.594Z,90.47
2018-09-07T04:14:33.705Z,90.67
2018-09-07T04:15:43.403Z,90.52
2018-09-07T04:16:53.470Z,90.61
2018-09-07T04:18:03.555Z,90.61
2018-09-07T04:19:13.648Z,90.71
2018-09-07T04:20:23.714Z,90.9
2018-09-07T04:21:33.600Z,90.81
2018-09-07T04:22:43.655Z,90.71
2018-09-07T04:23:53.722Z,90.81
2018-09-07T04:25:03.791Z,90.71
2018-09-07T04:26:13.611Z,90.71
2018-09-07T04:27:23.802Z,90.9
2018-09-07T04:28:33.892Z,90.71
2018-09-07T04:29:43.968Z,90.71
2018-09-07T04:30:54.063Z,90.71
2018-09-07T04:32:04.168Z,90.52
2018-09-07T04:33:14.292Z,90.85
2018-09-07T04:34:24.361Z,90.85
2018-09-07T04:35:34.464Z,90.47
2018-09-07T04:36:44.545Z,90.28
2018-09-07T04:37:54.463Z,90.47
2018-09-07T04:39:04.576Z,90.18
2018-09-07T04:40:14.663Z,90.18
2018-09-07T04:41:24.478Z,89.89
2018-09-07T04:42:34.584Z,89.75
2018-09-07T04:43:44.417Z,88.79
2018-09-07T04:44:54.264Z,88.49
2018-09-07T04:46:04.391Z,88.16
2018-09-07T04:47:14.597Z,87.53
2018-09-07T04:48:24.618Z,87.53
2018-09-07T04:49:34.332Z,87.29
2018-09-07T04:50:44.401Z,87.96
2018-09-07T04:51:54.208Z,87.19
2018-09-07T04:53:04.588Z,86.94
2018-09-07T04:54:14.694Z,86.65
2018-09-07T04:55:24.754Z,86.79
2018-09-07T04:56:34.840Z,86.6
2018-09-07T04:57:44.403Z,86.79
2018-09-07T04:58:54.224Z,87.27
2018-09-07T05:00:04.056Z,86.6
2018-09-07T05:01:14.134Z,86.45
2018-09-07T05:02:23.956Z,85.97
2018-09-07T05:03:33.521Z,86.11
2018-09-07T05:04:43.658Z,85.67
2018-09-07T05:05:53.779Z,85.28
2018-09-07T05:07:03.845Z,85.09
2018-09-07T05:08:13.671Z,84.75
2018-09-07T05:09:23.515Z,84.59
2018-09-07T05:10:33.591Z,85.75
2018-09-07T05:11:43.433Z,85.56
2018-09-07T05:12:53.497Z,85.46
2018-09-07T05:14:03.642Z,86.43
2018-09-07T05:15:13.722Z,87.01
2018-09-07T05:16:23.805Z,87.74
2018-09-07T05:17:33.877Z,88.02
2018-09-07T05:18:43.956Z,87.74
2018-09-07T05:19:53.829Z,88.41
2018-09-07T05:21:03.918Z,88.51
2018-09-07T05:22:13.882Z,88.65
2018-09-07T05:23:23.736Z,88.46
2018-09-07T05:24:33.804Z,88.95
2018-09-07T05:25:43.966Z,89.33
2018-09-07T05:26:54.058Z,89.14
2018-09-07T05:28:04.146Z,89.04
2018-09-07T05:29:14.215Z,89.04
2018-09-07T05:30:24.301Z,88.75
2018-09-07T05:31:34.531Z,88.95
2018-09-07T05:32:44.898Z,88.89
2018-09-07T05:33:54.974Z,88.89
2018-09-07T05:35:04.534Z,88.95
2018-09-07T05:36:14.346Z,89.04
2018-09-07T05:37:24.171Z,89.23
2018-09-07T05:38:34.279Z,89.23
2018-09-07T05:39:44.354Z,89.04
2018-09-07T05:40:54.466Z,88.95
2018-09-07T05:42:04.555Z,89.14
2018-09-07T05:43:14.650Z,89.04
2018-09-07T05:44:24.741Z,89.43
2018-09-07T05:45:34.821Z,89.53
2018-09-07T05:46:44.651Z,88.65
2018-09-07T05:47:54.733Z,88.75
2018-09-07T05:49:04.811Z,88.37
2018-09-07T05:50:14.874Z,88.65
2018-09-07T05:51:24.947Z,88.6
2018-09-07T05:52:34.494Z,88.51
2018-09-07T05:53:44.594Z,89.04
2018-09-07T05:54:54.742Z,88.46
2018-09-07T05:56:04.825Z,88.6
2018-09-07T05:57:14.895Z,88.51
2018-09-07T05:58:24.717Z,88.51
2018-09-07T05:59:34.863Z,88.6
2018-09-07T06:00:45.131Z,88.7
2018-09-07T06:01:55.222Z,89.09
2018-09-07T06:03:05.339Z,88.51
2018-09-07T06:04:15.174Z,88.6
2018-09-07T06:05:24.728Z,88.7
2018-09-07T06:06:34.824Z,88.7
2018-09-07T06:07:44.896Z,88.7
2018-09-07T06:08:55.001Z,88.51
2018-09-07T06:10:05.105Z,88.51
2018-09-07T06:11:14.931Z,88.41
2018-09-07T06:12:24.738Z,88.7
2018-09-07T06:13:34.814Z,88.6
2018-09-07T06:14:44.621Z,88.41
2018-09-07T06:15:54.462Z,88.6
2018-09-07T06:17:04.714Z,88.51
2018-09-07T06:18:14.779Z,88.93
2018-09-07T06:19:24.863Z,88.51
2018-09-07T06:20:34.669Z,88.6
2018-09-07T06:21:44.767Z,88.6
2018-09-07T06:22:54.601Z,88.36
2018-09-07T06:24:04.979Z,87.97
2018-09-07T06:25:14.793Z,88.17
2018-09-07T06:26:24.869Z,88.17
2018-09-07T06:27:34.689Z,88.45
2018-09-07T06:28:44.621Z,87.78
2018-09-07T06:29:54.719Z,87.92
2018-09-07T06:31:04.789Z,87.92
2018-09-07T06:32:14.868Z,87.73
2018-09-07T06:33:25.271Z,88.21
2018-09-07T06:34:35.401Z,88.21
2018-09-07T06:35:45.481Z,88.02
2018-09-07T06:36:55.629Z,87.92
2018-09-07T06:38:05.930Z,87.67
2018-09-07T06:39:16.222Z,87.96
2018-09-07T06:40:26.496Z,87.67
2018-09-07T06:41:36.625Z,87.58
2018-09-07T06:42:46.725Z,87.77
2018-09-07T06:43:56.539Z,87.77
2018-09-07T06:45:06.706Z,87.67
2018-09-07T06:46:16.780Z,87.71
2018-09-07T06:47:26.885Z,87.52
2018-09-07T06:48:36.972Z,87.71
2018-09-07T06:49:47.089Z,87.91
2018-09-07T06:50:57.159Z,87.81
2018-09-07T06:52:07.264Z,88.1
2018-09-07T06:53:17.388Z,87.91
2018-09-07T06:54:27.480Z,87.71
2018-09-07T06:55:37.568Z,87.71
2018-09-07T06:56:47.660Z,87.85
2018-09-07T06:57:57.748Z,87.37
2018-09-07T06:59:07.836Z,87.08
2018-09-07T07:00:17.924Z,87.47
2018-09-07T07:01:28.012Z,87.37
2018-09-07T07:02:38.268Z,87.23
2018-09-07T07:03:48.889Z,87.41
2018-09-07T07:04:58.724Z,87.81
2018-09-07T07:06:08.809Z,88.19
2018-09-07T07:07:18.884Z,87.9
2018-09-07T07:08:29.191Z,87.9
2018-09-07T07:09:39.467Z,87.9
2018-09-07T07:10:49.273Z,88.09
2018-09-07T07:11:59.347Z,87.81
2018-09-07T07:13:09.427Z,87.99
2018-09-07T07:14:19.561Z,87.61
2018-09-07T07:15:29.703Z,88.19
2018-09-07T07:16:39.777Z,87.23
2018-09-07T07:17:49.606Z,87.85
2018-09-07T07:18:59.685Z,87.55
2018-09-07T07:20:09.770Z,88.04
2018-09-07T07:21:19.635Z,87.55
2018-09-07T07:22:29.721Z,87.27
2018-09-07T07:23:39.541Z,87.85
2018-09-07T07:24:49.614Z,87.65
2018-09-07T07:25:59.929Z,87.65
2018-09-07T07:27:10.012Z,87.65
2018-09-07T07:28:20.096Z,87.55
2018-09-07T07:29:30.209Z,87.55
2018-09-07T07:30:40.026Z,87.46
2018-09-07T07:31:50.108Z,87.27
2018-09-07T07:33:00.392Z,87.55
2018-09-07T07:34:10.472Z,87.79
2018-09-07T07:35:20.575Z,87.6
2018-09-07T07:36:30.660Z,87.02
2018-09-07T07:37:40.757Z,87.5
2018-09-07T07:38:50.897Z,87.5
2018-09-07T07:40:00.993Z,87.12
2018-09-07T07:41:11.124Z,87.6
2018-09-07T07:42:21.423Z,87.26
2018-09-07T07:43:31.521Z,87.06
2018-09-07T07:44:41.387Z,87.54
2018-09-07T07:45:51.211Z,87.35
2018-09-07T07:47:01.025Z,87.74
2018-09-07T07:48:11.370Z,87.16
2018-09-07T07:49:21.597Z,87.16
2018-09-07T07:50:31.673Z,87.54
2018-09-07T07:51:41.754Z,87.59
2018-09-07T07:52:51.847Z,87.78
2018-09-07T07:54:01.917Z,87.59
2018-09-07T07:55:11.993Z,87.3
2018-09-07T07:56:22.070Z,87.49
2018-09-07T07:57:32.140Z,87.4
2018-09-07T07:58:41.990Z,87.49
2018-09-07T07:59:52.068Z,87.1
2018-09-07T08:01:02.148Z,87.1
2018-09-07T08:02:12.273Z,87.68
2018-09-07T08:03:22.345Z,87.88
2018-09-07T08:04:32.167Z,87.68
2018-09-07T08:05:42.306Z,87.88
2018-09-07T08:06:52.531Z,87.15
2018-09-07T08:08:03.068Z,87.63
2018-09-07T08:09:12.881Z,87.73
2018-09-07T08:10:22.706Z,87.73
2018-09-07T08:11:32.809Z,87.44
2018-09-07T08:12:42.887Z,87.92
2018-09-07T08:13:52.460Z,87.92
2018-09-07T08:15:02.807Z,87.92
2018-09-07T08:16:13.141Z,87.73
2018-09-07T08:17:23.263Z,87.73
2018-09-07T08:18:33.393Z,87.54
2018-09-07T08:19:43.309Z,87.63
2018-09-07T08:20:53.527Z,87.82
2018-09-07T08:22:03.749Z,87.44
2018-09-07T08:23:13.842Z,87.73
2018-09-07T08:24:23.955Z,87.68
2018-09-07T08:25:34.108Z,87.92
2018-09-07T08:26:44.497Z,87.63
2018-09-07T08:27:54.666Z,87.87
2018-09-07T08:29:04.761Z,87.77
2018-09-07T08:30:14.904Z,87.58
2018-09-07T08:31:25.032Z,87.58
2018-09-07T08:32:35.144Z,87.58
2018-09-07T08:33:45.678Z,87.72
2018-09-07T08:34:55.766Z,87.77
2018-09-07T08:36:05.873Z,87.82
2018-09-07T08:37:15.969Z,87.82
2018-09-07T08:38:26.284Z,87.52
2018-09-07T08:39:36.374Z,87.62
2018-09-07T08:40:46.334Z,87.72
2018-09-07T08:41:56.839Z,87.82
2018-09-07T08:43:06.959Z,87.43
2018-09-07T08:44:16.783Z,87.23
2018-09-07T08:45:26.870Z,87.04
2018-09-07T08:46:36.713Z,87.76
2018-09-07T08:47:47.225Z,87.66
2018-09-07T08:48:57.353Z,87.57
2018-09-07T08:50:07.468Z,87.66
2018-09-07T08:51:17.540Z,87.57
2018-09-07T08:52:27.634Z,87.57
2018-09-07T08:53:37.693Z,87.66
2018-09-07T08:54:48.043Z,87.71
2018-09-07T08:55:58.303Z,87.96
2018-09-07T08:57:08.408Z,87.12
2018-09-07T08:58:18.229Z,87.86
2018-09-07T08:59:28.322Z,87.86
2018-09-07T09:00:38.430Z,87.71
2018-09-07T09:01:48.549Z,87.76
2018-09-07T09:02:58.633Z,87.76
2018-09-07T09:04:08.713Z,87.9
2018-09-07T09:05:18.806Z,87.71
2018-09-07T09:06:28.661Z,87.9
2018-09-07T09:07:38.494Z,87.9
2018-09-07T09:08:48.586Z,87.81
2018-09-07T09:09:58.695Z,87.95
2018-09-07T09:11:08.815Z,87.26
2018-09-07T09:12:18.905Z,87.75
2018-09-07T09:13:29.128Z,87.65
2018-09-07T09:14:39.212Z,87.46
2018-09-07T09:15:49.348Z,87.46
2018-09-07T09:16:59.329Z,87.75
2018-09-07T09:18:09.471Z,87.75
2018-09-07T09:19:19.556Z,87.75
2018-09-07T09:20:29.655Z,88.04
2018-09-07T09:21:39.748Z,87.36
2018-09-07T09:22:49.856Z,87.4
2018-09-07T09:24:00.014Z,87.7
2018-09-07T09:25:10.455Z,87.3
2018-09-07T09:26:20.536Z,87.4
2018-09-07T09:27:30.879Z,87.5
2018-09-07T09:28:40.977Z,87.89
2018-09-07T09:29:51.115Z,87.6
2018-09-07T09:31:00.959Z,87.6
2018-09-07T09:32:11.047Z,87.79
2018-09-07T09:33:21.128Z,87.99
2018-09-07T09:34:31.228Z,87.21
2018-09-07T09:35:41.050Z,87.79
2018-09-07T09:36:51.379Z,87.5
2018-09-07T09:38:01.223Z,87.5
2018-09-07T09:39:11.044Z,87.89
2018-09-07T09:40:20.879Z,88.18
2018-09-07T09:41:30.501Z,87.99
2018-09-07T09:42:40.331Z,87.89
2018-09-07T09:43:50.413Z,87.4
2018-09-07T09:45:00.885Z,87.99
2018-09-07T09:46:10.989Z,88.13
2018-09-07T09:47:21.253Z,87.4
2018-09-07T09:48:31.361Z,88.13
2018-09-07T09:49:41.518Z,87.54
2018-09-07T09:50:51.609Z,87.64
2018-09-07T09:52:01.700Z,87.84
2018-09-07T09:53:11.642Z,87.64
2018-09-07T09:54:22.126Z,87.54
2018-09-07T09:55:32.233Z,87.84
2018-09-07T09:56:42.318Z,88.13
2018-09-07T09:57:52.637Z,87.84
2018-09-07T09:59:03.395Z,87.84
2018-09-07T10:00:13.556Z,87.84
2018-09-07T10:01:23.644Z,88.03
2018-09-07T10:02:33.904Z,87.88
2018-09-07T10:03:44.309Z,87.49
2018-09-07T10:04:54.414Z,87.29
2018-09-07T10:06:04.526Z,87.39
2018-09-07T10:07:14.620Z,87.49
2018-09-07T10:08:24.196Z,87.98
2018-09-07T10:09:34.808Z,87.78
2018-09-07T10:10:45.125Z,87.78
2018-09-07T10:11:55.269Z,87.49
2018-09-07T10:13:05.220Z,88.07
2018-09-07T10:14:15.317Z,87.68
2018-09-07T10:15:25.140Z,88.37
2018-09-07T10:16:35.226Z,88.81
2018-09-07T10:17:45.375Z,88.62
2018-09-07T10:18:55.493Z,88.52
2018-09-07T10:20:06.477Z,88.66
2018-09-07T10:21:16.569Z,87.88
2018-09-07T10:22:26.646Z,87.88
2018-09-07T10:23:36.745Z,87.78
2018-09-07T10:24:46.839Z,87.78
2018-09-07T10:25:56.918Z,87.53
2018-09-07T10:27:07.025Z,87.34
2018-09-07T10:28:16.865Z,87.43
2018-09-07T10:29:27.006Z,87.43
2018-09-07T10:30:37.109Z,87.43
2018-09-07T10:31:47.021Z,87.73
2018-09-07T10:32:58.261Z,87.53
2018-09-07T10:34:08.383Z,87.53
2018-09-07T10:35:18.559Z,87.24
2018-09-07T10:36:28.409Z,87.05
2018-09-07T10:37:38.864Z,87.38
2018-09-07T10:38:49.278Z,87.38
2018-09-07T10:39:59.369Z,87.29
2018-09-07T10:41:09.871Z,86.99
2018-09-07T10:42:19.961Z,87.09
2018-09-07T10:43:30.075Z,86.99
2018-09-07T10:44:40.201Z,86.94
2018-09-07T10:45:50.282Z,87.04
2018-09-07T10:47:00.443Z,86.94
2018-09-07T10:48:10.532Z,86.65
2018-09-07T10:49:20.573Z,86.94
2018-09-07T10:50:30.714Z,86.94
2018-09-07T10:51:40.805Z,86.84
2018-09-07T10:52:50.894Z,87.13
2018-09-07T10:54:00.764Z,87.13
2018-09-07T10:55:10.853Z,87.13
2018-09-07T10:56:21.269Z,87.13
2018-09-07T10:57:30.816Z,87.52
2018-09-07T10:58:40.920Z,87.33
2018-09-07T10:59:51.225Z,87.71
2018-09-07T11:01:01.617Z,87.62
2018-09-07T11:02:12.769Z,87.71
2018-09-07T11:03:22.861Z,88.01
2018-09-07T11:04:32.707Z,87.71
2018-09-07T11:05:42.797Z,87.62
2018-09-07T11:06:52.887Z,87.91
2018-09-07T11:08:02.909Z,87.85
2018-09-07T11:09:12.991Z,87.66
2018-09-07T11:10:23.115Z,87.76
2018-09-07T11:11:33.223Z,87.56
2018-09-07T11:12:42.805Z,87.56
2018-09-07T11:13:52.808Z,88.15
2018-09-07T11:15:03.707Z,87.91
2018-09-07T11:16:13.781Z,88.2
2018-09-07T11:17:23.595Z,87.76
2018-09-07T11:18:33.730Z,88.15
2018-09-07T11:19:43.800Z,88.05
2018-09-07T11:20:53.697Z,87.76
2018-09-07T11:22:04.054Z,87.56
2018-09-07T11:23:14.180Z,88.24
2018-09-07T11:24:23.732Z,88.4
2018-09-07T11:25:33.822Z,88.49
2018-09-07T11:26:43.629Z,89.23
2018-09-07T11:27:53.743Z,88.84
2018-09-07T11:29:03.820Z,89
2018-09-07T11:30:14.381Z,88.26
2018-09-07T11:31:24.222Z,88.35
2018-09-07T11:32:34.333Z,88.45
2018-09-07T11:33:43.903Z,88.49
2018-09-07T11:34:54.237Z,88.2
2018-09-07T11:36:04.051Z,88.01
2018-09-07T11:37:14.187Z,87.71
2018-09-07T11:38:24.303Z,87.76
2018-09-07T11:39:34.398Z,87.27
2018-09-07T11:40:44.218Z,87.37
2018-09-07T11:41:54.338Z,87.85
2018-09-07T11:43:04.164Z,87.37
2018-09-07T11:44:14.269Z,87.56
2018-09-07T11:45:24.340Z,87.66
2018-09-07T11:46:34.609Z,87.7
2018-09-07T11:47:45.344Z,86.93
2018-09-07T11:48:56.010Z,87.22
2018-09-07T11:50:06.257Z,86.97
2018-09-07T11:51:16.781Z,86.48
2018-09-07T11:52:28.743Z,86.87
2018-09-07T11:53:38.840Z,87.07
2018-09-07T11:54:49.185Z,87.21
2018-09-07T11:55:59.515Z,87.21
2018-09-07T11:57:09.604Z,87.21
2018-09-07T11:58:19.811Z,87.21
2018-09-07T11:59:29.932Z,87.3
2018-09-07T12:00:40.025Z,87.01
2018-09-07T12:01:49.927Z,87.21
2018-09-07T12:02:59.854Z,87.3
2018-09-07T12:04:09.726Z,87.11
2018-09-07T12:05:20.172Z,87.7
2018-09-07T12:06:30.003Z,87.94
2018-09-07T12:07:40.091Z,87.84
2018-09-07T12:08:50.220Z,88.04
2018-09-07T12:10:00.399Z,87.84
2018-09-07T12:11:10.298Z,87.74
2018-09-07T12:12:20.248Z,87.46
2018-09-07T12:13:31.325Z,87.36
2018-09-07T12:14:41.802Z,87.26
2018-09-07T12:15:51.886Z,87.46
2018-09-07T12:17:02.010Z,87.46
2018-09-07T12:18:12.037Z,87.21
2018-09-07T12:19:21.893Z,87.21
2018-09-07T12:20:32.061Z,86.46
2018-09-07T12:21:42.151Z,85.88
2018-09-07T12:22:52.222Z,86.07
2018-09-07T12:24:02.062Z,85.72
2018-09-07T12:25:12.172Z,86.02
2018-09-07T12:26:22.009Z,86.8
2018-09-07T12:27:32.102Z,87.05
2018-09-07T12:28:41.658Z,86.95
2018-09-07T12:29:51.871Z,87.15
2018-09-07T12:31:01.845Z,87.24
2018-09-07T12:32:11.990Z,87.24
2018-09-07T12:33:22.086Z,86.95
2018-09-07T12:34:32.016Z,86.66
2018-09-07T12:35:42.367Z,86.51
2018-09-07T12:36:52.485Z,86.46
2018-09-07T12:38:02.790Z,86.6
2018-09-07T12:39:12.628Z,86.8
2018-09-07T12:40:22.746Z,87.19
2018-09-07T12:41:32.842Z,87.34
2018-09-07T12:42:42.977Z,87.24
2018-09-07T12:43:53.090Z,87.15
2018-09-07T12:45:03.332Z,87.15
2018-09-07T12:46:13.446Z,87.54
2018-09-07T12:47:23.283Z,87.64
2018-09-07T12:48:33.559Z,87.44
2018-09-07T12:49:44.041Z,88.09
2018-09-07T12:50:54.123Z,88.33
2018-09-07T12:52:04.241Z,88.33
2018-09-07T12:53:14.342Z,88.58
2018-09-07T12:54:24.189Z,88.97
2018-09-07T12:55:33.766Z,88.97
2018-09-07T12:56:43.585Z,88.64
2018-09-07T12:57:53.425Z,88.58
2018-09-07T12:59:03.509Z,88.19
2018-09-07T13:00:13.662Z,88.09
2018-09-07T13:01:23.503Z,88.04
2018-09-07T13:02:33.854Z,87.65
2018-09-07T13:03:43.866Z,87.74
2018-09-07T13:04:53.453Z,87.79
2018-09-07T13:06:03.299Z,87.3
2018-09-07T13:07:13.399Z,87.01
2018-09-07T13:08:23.680Z,87.54
2018-09-07T13:09:33.985Z,87.15
2018-09-07T13:10:44.084Z,87.54
2018-09-07T13:11:54.227Z,87.05
2018-09-07T13:13:04.335Z,87.24
2018-09-07T13:14:14.416Z,87.15
2018-09-07T13:15:24.553Z,87.24
2018-09-07T13:16:34.658Z,87.05
2018-09-07T13:17:44.786Z,87.34
2018-09-07T13:18:54.886Z,87.15
2018-09-07T13:20:04.995Z,87.21
2018-09-07T13:21:15.096Z,87.34
2018-09-07T13:22:24.937Z,87.5
2018-09-07T13:23:35.027Z,87.44
2018-09-07T13:24:45.127Z,87.64
2018-09-07T13:25:55.236Z,87.34
2018-09-07T13:27:05.334Z,87.24
2018-09-07T13:28:15.423Z,87.05
2018-09-07T13:29:25.527Z,86.85
2018-09-07T13:30:35.088Z,87.34
2018-09-07T13:31:45.177Z,87.15
2018-09-07T13:32:55.273Z,87.34
2018-09-07T13:34:05.408Z,87.09
2018-09-07T13:35:15.623Z,88.03
2018-09-07T13:36:25.449Z,88.42
2018-09-07T13:37:35.550Z,88.48
2018-09-07T13:38:45.703Z,88.87
2018-09-07T13:39:55.555Z,88.09
2018-09-07T13:41:05.872Z,87.99
2018-09-07T13:42:15.809Z,87.7
2018-09-07T13:43:25.908Z,88.03
2018-09-07T13:44:36.006Z,87.79
2018-09-07T13:45:46.131Z,87.89
2018-09-07T13:46:56.318Z,88.03
2018-09-07T13:48:06.162Z,87.5
2018-09-07T13:49:16.453Z,87.34
2018-09-07T13:50:26.297Z,87.15
2018-09-07T13:51:36.412Z,86.85
2018-09-07T13:52:46.303Z,87.34
2018-09-07T13:53:56.524Z,87.54
2018-09-07T13:55:06.809Z,87.09
2018-09-07T13:56:16.929Z,86.99
2018-09-07T13:57:26.506Z,86.99
2018-09-07T13:58:36.647Z,86.9
2018-09-07T13:59:46.722Z,87.19
2018-09-07T14:00:56.829Z,87.19
2018-09-07T14:02:06.973Z,87.38
2018-09-07T14:03:16.814Z,87.19
2018-09-07T14:04:26.913Z,87.29
2018-09-07T14:05:37.022Z,86.85
2018-09-07T14:06:47.143Z,87.38
2018-09-07T14:07:57.296Z,87.84
2018-09-07T14:09:07.447Z,87.74
2018-09-07T14:10:17.635Z,87.99
2018-09-07T14:11:28.042Z,88.09
2018-09-07T14:12:38.158Z,88.18
2018-09-07T14:13:48.317Z,88.43
2018-09-07T14:14:58.157Z,88.62
2018-09-07T14:16:08.429Z,88.58
2018-09-07T14:17:18.461Z,89.17
2018-09-07T14:18:28.563Z,88.68
2018-09-07T14:19:38.677Z,88.93
2018-09-07T14:20:48.535Z,88.54
2018-09-07T14:21:58.742Z,88.09
2018-09-07T14:23:08.845Z,88.09
2018-09-07T14:24:18.945Z,87.99
2018-09-07T14:25:28.799Z,87.84
2018-09-07T14:26:38.945Z,87.55
2018-09-07T14:27:49.091Z,87.74
2018-09-07T14:28:58.915Z,87.84
2018-09-07T14:30:09.013Z,87.26
2018-09-07T14:31:19.117Z,87.74
2018-09-07T14:32:29.248Z,87.74
2018-09-07T14:33:39.442Z,88.23
2018-09-07T14:34:49.281Z,87.99
2018-09-07T14:35:59.399Z,87.51
2018-09-07T14:37:09.219Z,87.22
2018-09-07T14:38:19.346Z,87.26
2018-09-07T14:39:29.491Z,87.36
2018-09-07T14:40:39.601Z,87.26
2018-09-07T14:41:49.693Z,87.55
2018-09-07T14:42:59.513Z,87.94
2018-09-07T14:44:09.604Z,87.94
2018-09-07T14:45:19.718Z,87.65
2018-09-07T14:46:29.554Z,87.74
2018-09-07T14:47:39.631Z,87.7
2018-09-07T14:48:49.360Z,87.74
2018-09-07T14:49:59.854Z,87.51
2018-09-07T14:51:09.695Z,87.51
2018-09-07T14:52:19.520Z,88.19
2018-09-07T14:53:29.630Z,88.19
2018-09-07T14:54:39.807Z,87.6
2018-09-07T14:55:50.014Z,87.9
2018-09-07T14:57:00.124Z,88.29
2018-09-07T14:58:10.016Z,87.99
2018-09-07T14:59:19.922Z,88.09
2018-09-07T15:00:29.893Z,88.09
2018-09-07T15:01:40.238Z,88.15
2018-09-07T15:02:50.084Z,87.81
2018-09-07T15:03:59.916Z,88.2
2018-09-07T15:05:09.755Z,88.59
2018-09-07T15:06:20.001Z,88.3
2018-09-07T15:07:30.081Z,88.69
2018-09-07T15:08:40.174Z,88.49
2018-09-07T15:09:50.048Z,88.75
2018-09-07T15:11:00.136Z,88.75
2018-09-07T15:12:10.297Z,88.75
2018-09-07T15:13:20.405Z,88.8
2018-09-07T15:14:30.596Z,89
2018-09-07T15:15:40.443Z,89.58
2018-09-07T15:16:50.544Z,89.09
2018-09-07T15:18:00.118Z,89.24
2018-09-07T15:19:09.992Z,89.39
2018-09-07T15:20:20.090Z,89.69
2018-09-07T15:21:30.193Z,89.69
2018-09-07T15:22:40.022Z,90.32
2018-09-07T15:23:49.859Z,90.03
2018-09-07T15:24:59.686Z,90.47
2018-09-07T15:26:09.697Z,90.47
2018-09-07T15:27:19.670Z,90.57
2018-09-07T15:28:29.757Z,90.67
2018-09-07T15:29:39.972Z,90.72
2018-09-07T15:30:49.577Z,90.14
2018-09-07T15:31:59.452Z,90.14
2018-09-07T15:33:09.556Z,89.94
2018-09-07T15:34:19.795Z,90.62
2018-09-07T15:35:30.185Z,89.94
2018-09-07T15:36:40.044Z,89.94
2018-09-07T15:37:49.906Z,89.75